Time;durP1;ratioP1;P1;durP2;ratioP2;P2;SDS_P1;SDS_P2;PMS_P1;PMS_P2;Temp;Humidity;BMP_temperature;BMP_pressure;BME280_temperature;BME280_humidity;BME280_pressure;Samples;Min_cycle;Max_cycle;Signal;HPM_P1;HPM_P2
2023/05/11 00:01:07;;;;;;;1.47;0.90;;;12.20;99.90;;;;;;5043441;28;20572;-41
2023/05/11 00:03:34;;;;;;;0.90;0.90;;;12.20;99.90;;;;;;5071916;28;20196;-40
2023/05/11 00:06:01;;;;;;;1.20;1.00;;;12.20;99.90;;;;;;5052766;28;20203;-40
2023/05/11 00:08:27;;;;;;;1.10;1.00;;;12.20;99.90;;;;;;5037350;28;20212;-41
2023/05/11 00:10:52;;;;;;;2.57;1.20;;;12.20;99.90;;;;;;5055686;28;20217;-40
2023/05/11 00:13:19;;;;;;;2.93;1.00;;;12.20;99.90;;;;;;5053711;28;20199;-38
2023/05/11 00:15:45;;;;;;;2.20;0.80;;;12.10;99.90;;;;;;5052617;28;20243;-41
2023/05/11 00:18:11;;;;;;;1.43;0.80;;;12.10;99.90;;;;;;5057792;28;20200;-40
2023/05/11 00:20:36;;;;;;;3.37;1.23;;;12.10;99.90;;;;;;5051999;28;20214;-40
2023/05/11 00:23:03;;;;;;;1.10;0.90;;;12.20;99.90;;;;;;5063321;28;20671;-42
2023/05/11 00:25:28;;;;;;;2.20;0.80;;;12.10;99.90;;;;;;5065276;28;20229;-40
2023/05/11 00:27:54;;;;;;;0.73;0.73;;;12.00;99.90;;;;;;5047332;28;20183;-42
2023/05/11 00:30:20;;;;;;;0.80;0.80;;;12.00;99.90;;;;;;5054180;28;20188;-40
2023/05/11 00:32:47;;;;;;;1.47;1.07;;;12.00;99.90;;;;;;5033614;28;20208;-42
2023/05/11 00:35:13;;;;;;;1.10;0.90;;;12.00;99.90;;;;;;5051532;28;20178;-41
2023/05/11 00:37:39;;;;;;;1.30;1.10;;;11.90;99.90;;;;;;5033862;28;20203;-41
2023/05/11 00:40:06;;;;;;;4.23;0.90;;;12.00;99.90;;;;;;5042094;28;20236;-42
2023/05/11 00:42:32;;;;;;;1.27;0.90;;;12.00;99.90;;;;;;5051896;28;20206;-41
2023/05/11 00:44:58;;;;;;;2.77;1.10;;;12.00;99.90;;;;;;5071673;28;20179;-41
2023/05/11 00:47:24;;;;;;;0.70;0.70;;;11.90;99.90;;;;;;5033326;28;20192;-42
2023/05/11 00:49:52;;;;;;;1.13;0.90;;;11.90;99.90;;;;;;5047496;28;20189;-42
2023/05/11 00:52:19;;;;;;;3.07;0.97;;;11.90;99.90;;;;;;5051200;28;20185;-41
2023/05/11 00:54:46;;;;;;;1.20;0.90;;;11.90;99.90;;;;;;5062332;28;20172;-41
2023/05/11 00:57:12;;;;;;;1.20;1.10;;;11.90;99.90;;;;;;5034028;28;20203;-42
2023/05/11 00:59:38;;;;;;;2.80;0.90;;;11.90;99.90;;;;;;5052848;28;20196;-42
2023/05/11 01:02:04;;;;;;;0.80;0.80;;;11.90;99.90;;;;;;5062087;28;20179;-40
2023/05/11 01:04:31;;;;;;;1.20;0.70;;;11.90;99.90;;;;;;5033615;28;20261;-40
2023/05/11 01:07:15;;;;;;;0.97;0.90;;;11.90;99.90;;;;;;5037712;28;20287;-40
2023/05/11 01:10:11;;;;;;;0.80;0.80;;;11.90;99.90;;;;;;5040784;28;20174;-40
2023/05/11 01:12:51;;;;;;;1.53;0.80;;;11.90;99.90;;;;;;5053104;28;20197;-43
2023/05/11 01:15:38;;;;;;;1.37;0.90;;;11.90;99.90;;;;;;5052896;28;20182;-40
2023/05/11 01:18:37;;;;;;;1.57;0.70;;;11.80;99.90;;;;;;5044266;28;20208;-41
2023/05/11 01:21:10;;;;;;;1.00;0.90;;;11.80;99.90;;;;;;5035936;28;20180;-41
2023/05/11 01:23:57;;;;;;;4.00;1.20;;;11.80;99.90;;;;;;5024987;28;20231;-41
2023/05/11 01:26:27;;;;;;;1.20;0.87;;;11.80;99.90;;;;;;5050909;28;20183;-40
2023/05/11 01:29:17;;;;;;;1.20;0.83;;;11.80;99.90;;;;;;5038505;28;20188;-41
2023/05/11 01:31:47;;;;;;;0.80;0.80;;;11.80;99.90;;;;;;5031385;28;20186;-41
2023/05/11 01:34:18;;;;;;;1.47;0.93;;;11.80;99.90;;;;;;5052686;28;20311;-42
2023/05/11 01:36:52;;;;;;;2.43;0.90;;;11.80;99.90;;;;;;5023873;28;20184;-40
2023/05/11 01:39:23;;;;;;;0.97;0.90;;;11.80;99.90;;;;;;5044071;28;20188;-40
2023/05/11 01:41:53;;;;;;;1.27;1.00;;;11.80;99.90;;;;;;5033006;28;20180;-41
2023/05/11 01:44:21;;;;;;;1.37;0.90;;;11.80;99.90;;;;;;5036347;28;20212;-39
2023/05/11 01:46:48;;;;;;;3.00;0.83;;;11.80;99.90;;;;;;5032491;28;20180;-39
2023/05/11 01:49:16;;;;;;;1.10;1.00;;;11.70;99.90;;;;;;5039993;28;20271;-41
2023/05/11 01:51:43;;;;;;;1.47;0.90;;;11.70;99.90;;;;;;5045469;28;20178;-39
2023/05/11 01:54:11;;;;;;;1.73;0.80;;;11.70;99.90;;;;;;5036031;28;20212;-40
2023/05/11 01:56:42;;;;;;;0.97;0.90;;;11.70;99.90;;;;;;5045686;28;20178;-40
2023/05/11 01:59:09;;;;;;;1.13;0.80;;;11.70;99.90;;;;;;5036151;28;20210;-40
2023/05/11 02:01:36;;;;;;;1.10;0.70;;;11.60;99.90;;;;;;5055855;28;20216;-41
2023/05/11 02:04:04;;;;;;;2.63;0.97;;;11.60;99.90;;;;;;5018768;28;20200;-41
2023/05/11 02:06:33;;;;;;;1.83;1.00;;;11.60;99.90;;;;;;5041321;28;20273;-41
2023/05/11 02:09:00;;;;;;;1.50;1.00;;;11.60;99.90;;;;;;5042461;28;20266;-40
2023/05/11 02:11:28;;;;;;;3.60;0.83;;;11.70;99.90;;;;;;5034202;28;20192;-40
2023/05/11 02:13:57;;;;;;;2.20;1.00;;;11.70;99.90;;;;;;5031346;28;20204;-40
2023/05/11 02:16:26;;;;;;;0.87;0.80;;;11.70;99.90;;;;;;5033187;28;20197;-40
2023/05/11 02:18:54;;;;;;;1.73;0.90;;;11.70;99.90;;;;;;5025372;28;20210;-41
2023/05/11 02:21:21;;;;;;;1.17;0.90;;;11.80;99.90;;;;;;5036163;28;20173;-40
2023/05/11 02:23:50;;;;;;;1.87;0.97;;;11.80;99.90;;;;;;5037989;28;20212;-39
2023/05/11 02:26:16;;;;;;;1.07;1.00;;;11.80;99.90;;;;;;5039771;28;20260;-41
2023/05/11 02:28:42;;;;;;;1.97;0.90;;;11.80;99.90;;;;;;5073853;28;20218;-42
2023/05/11 02:31:15;;;;;;;3.57;1.17;;;11.80;99.90;;;;;;5049806;28;20191;-41
2023/05/11 02:33:46;;;;;;;0.90;0.70;;;11.80;99.90;;;;;;5036087;28;20341;-39
2023/05/11 02:36:16;;;;;;;1.17;0.80;;;11.80;99.90;;;;;;5031007;28;20183;-40
2023/05/11 02:38:45;;;;;;;1.03;0.90;;;11.80;99.90;;;;;;5053871;28;20281;-41
2023/05/11 02:41:20;;;;;;;1.00;0.90;;;11.80;99.90;;;;;;5047293;28;20192;-41
2023/05/11 02:43:50;;;;;;;0.90;0.80;;;11.80;99.90;;;;;;5035619;28;20238;-41
2023/05/11 02:46:22;;;;;;;1.13;0.90;;;11.80;99.90;;;;;;5025791;28;20285;-41
2023/05/11 02:48:54;;;;;;;1.43;1.00;;;11.80;99.90;;;;;;5041297;28;20175;-40
2023/05/11 02:51:38;;;;;;;2.17;0.90;;;11.80;99.90;;;;;;5023543;28;20212;-42
2023/05/11 02:54:09;;;;;;;0.80;0.80;;;11.80;99.90;;;;;;5042888;28;20209;-41
2023/05/11 02:56:39;;;;;;;1.10;1.00;;;11.80;99.90;;;;;;5035696;28;20199;-41
2023/05/11 02:59:06;;;;;;;1.40;0.80;;;11.80;99.90;;;;;;5028656;28;20290;-40
2023/05/11 03:01:32;;;;;;;1.63;1.00;;;11.80;99.90;;;;;;5055459;28;20179;-41
2023/05/11 03:03:58;;;;;;;2.00;1.00;;;11.80;99.90;;;;;;5039085;28;20200;-41
2023/05/11 03:06:26;;;;;;;1.07;0.90;;;11.80;99.90;;;;;;5027256;28;20289;-41
2023/05/11 03:08:52;;;;;;;2.60;1.00;;;11.80;99.90;;;;;;5052851;28;20251;-41
2023/05/11 03:11:18;;;;;;;1.13;0.97;;;11.80;99.90;;;;;;5036782;28;20283;-41
2023/05/11 03:13:46;;;;;;;1.77;0.93;;;11.80;99.90;;;;;;5043499;28;20293;-39
2023/05/11 03:16:15;;;;;;;0.80;0.80;;;11.70;99.90;;;;;;5035140;28;20203;-40
2023/05/11 03:18:41;;;;;;;1.13;1.00;;;11.70;99.90;;;;;;5046846;28;20249;-41
2023/05/11 03:21:07;;;;;;;1.27;1.07;;;11.70;99.90;;;;;;5037555;28;20229;-41
2023/05/11 03:23:35;;;;;;;2.47;1.10;;;11.70;99.90;;;;;;5054434;28;20195;-41
2023/05/11 03:26:03;;;;;;;1.03;0.87;;;11.70;99.90;;;;;;5055236;28;20216;-41
2023/05/11 03:28:30;;;;;;;1.07;0.90;;;11.70;99.90;;;;;;5054141;28;20188;-42
2023/05/11 03:31:00;;;;;;;1.53;1.03;;;11.70;99.90;;;;;;5056302;28;20179;-41
2023/05/11 03:33:26;;;;;;;1.17;0.80;;;11.70;99.90;;;;;;5037840;28;20197;-41
2023/05/11 03:35:53;;;;;;;1.87;0.90;;;11.70;99.90;;;;;;5053887;28;20184;-39
2023/05/11 03:38:23;;;;;;;3.60;0.90;;;11.70;99.90;;;;;;5023382;28;20217;-41
2023/05/11 03:40:53;;;;;;;1.30;0.90;;;11.70;99.90;;;;;;5022370;28;20196;-39
2023/05/11 03:43:20;;;;;;;2.43;0.97;;;11.70;99.90;;;;;;5050044;28;20231;-42
2023/05/11 03:45:54;;;;;;;1.20;1.10;;;11.70;99.90;;;;;;5056268;28;20175;-39
2023/05/11 03:48:23;;;;;;;1.10;0.97;;;11.70;99.90;;;;;;5051198;28;20190;-40
2023/05/11 03:50:53;;;;;;;2.50;0.90;;;11.70;99.90;;;;;;5035862;28;20183;-39
2023/05/11 03:53:22;;;;;;;0.90;0.90;;;11.70;99.90;;;;;;5070047;28;20200;-39
2023/05/11 03:55:51;;;;;;;1.67;0.97;;;11.70;99.90;;;;;;5054006;28;20184;-42
2023/05/11 03:58:19;;;;;;;1.10;1.00;;;11.70;99.90;;;;;;5049799;28;20205;-38
2023/05/11 04:00:47;;;;;;;1.30;0.90;;;11.70;99.90;;;;;;5051942;28;20195;-40
2023/05/11 04:03:13;;;;;;;1.20;0.90;;;11.70;99.90;;;;;;5057475;28;20207;-41
2023/05/11 04:05:40;;;;;;;1.53;1.07;;;11.70;99.90;;;;;;5033136;28;20169;-41
2023/05/11 04:08:08;;;;;;;1.80;1.00;;;11.70;99.90;;;;;;5019124;28;20198;-41
2023/05/11 04:10:34;;;;;;;0.93;0.90;;;11.70;99.90;;;;;;5037919;28;20203;-41
2023/05/11 04:13:00;;;;;;;2.10;0.90;;;11.70;99.90;;;;;;5033959;28;20217;-40
2023/05/11 04:15:25;;;;;;;1.63;0.90;;;11.70;99.90;;;;;;5017972;28;20646;-39
2023/05/11 04:17:51;;;;;;;1.37;0.90;;;11.70;99.90;;;;;;5034059;28;20304;-42
2023/05/11 04:20:17;;;;;;;1.13;1.03;;;11.70;99.90;;;;;;5034074;28;20223;-40
2023/05/11 04:22:43;;;;;;;1.53;1.00;;;11.70;99.90;;;;;;5034312;28;20191;-39
2023/05/11 04:25:09;;;;;;;1.00;1.00;;;11.80;99.90;;;;;;5034308;28;20179;-41
2023/05/11 04:27:35;;;;;;;1.57;1.00;;;11.80;99.90;;;;;;5053822;28;20229;-41
2023/05/11 04:30:03;;;;;;;2.57;0.90;;;11.80;99.90;;;;;;5053913;28;20732;-41
2023/05/11 04:32:29;;;;;;;1.93;0.80;;;11.80;99.90;;;;;;5053428;28;20220;-41
2023/05/11 04:34:56;;;;;;;0.80;0.80;;;11.80;99.90;;;;;;5049461;28;20208;-41
2023/05/11 04:37:24;;;;;;;1.43;1.33;;;11.80;99.90;;;;;;5048462;28;20703;-39
2023/05/11 04:39:51;;;;;;;1.63;0.87;;;11.80;99.90;;;;;;5034485;28;20182;-41
2023/05/11 04:42:17;;;;;;;3.13;0.90;;;11.80;99.90;;;;;;5052033;28;20185;-41
2023/05/11 04:44:46;;;;;;;1.67;0.97;;;11.80;99.90;;;;;;5051745;28;20196;-40
2023/05/11 04:47:12;;;;;;;1.40;0.97;;;11.80;99.90;;;;;;5032867;28;20231;-40
2023/05/11 04:49:38;;;;;;;0.93;0.93;;;11.80;99.90;;;;;;5053342;28;20179;-41
2023/05/11 04:52:05;;;;;;;3.10;0.90;;;11.80;99.90;;;;;;5049229;28;20208;-39
2023/05/11 04:54:31;;;;;;;1.43;0.90;;;11.70;99.90;;;;;;5049341;28;20193;-41
2023/05/11 04:56:57;;;;;;;1.30;0.90;;;11.70;99.90;;;;;;5031304;28;20228;-41
2023/05/11 04:59:23;;;;;;;0.97;0.70;;;11.70;99.90;;;;;;5036864;28;20185;-42
2023/05/11 05:01:49;;;;;;;1.43;0.80;;;11.70;99.90;;;;;;5049870;28;20182;-39
2023/05/11 05:04:15;;;;;;;0.90;0.90;;;11.70;99.90;;;;;;5052502;28;20196;-41
2023/05/11 05:06:41;;;;;;;0.90;0.80;;;11.70;99.90;;;;;;5041944;28;20201;-41
2023/05/11 05:09:07;;;;;;;1.10;0.80;;;11.70;99.90;;;;;;5045477;28;20185;-41
2023/05/11 05:11:33;;;;;;;2.80;1.00;;;11.80;99.90;;;;;;5043790;28;20180;-41
2023/05/11 05:14:00;;;;;;;1.03;0.97;;;11.80;99.90;;;;;;5042941;28;20293;-40
2023/05/11 05:16:26;;;;;;;2.17;0.90;;;11.80;99.90;;;;;;5059429;28;20268;-41
2023/05/11 05:18:52;;;;;;;1.57;0.90;;;11.90;99.90;;;;;;5042453;28;20308;-41
2023/05/11 05:21:17;;;;;;;1.90;0.90;;;11.90;99.90;;;;;;5038818;28;20187;-41
2023/05/11 05:23:44;;;;;;;1.20;1.10;;;11.90;99.90;;;;;;5041466;28;20354;-41
2023/05/11 05:26:10;;;;;;;1.10;1.00;;;12.00;99.90;;;;;;5033659;28;20198;-41
2023/05/11 05:28:37;;;;;;;0.80;0.80;;;12.00;99.90;;;;;;5047449;28;20624;-41
2023/05/11 05:31:03;;;;;;;1.50;0.83;;;12.00;99.90;;;;;;5046401;28;20184;-40
2023/05/11 05:33:29;;;;;;;2.07;0.90;;;12.00;99.90;;;;;;5060731;28;20197;-40
2023/05/11 05:35:55;;;;;;;2.20;1.00;;;12.00;99.90;;;;;;5047030;28;20205;-41
2023/05/11 05:38:21;;;;;;;1.50;0.80;;;12.00;99.90;;;;;;5040599;28;20197;-41
2023/05/11 05:40:47;;;;;;;1.27;0.90;;;12.00;99.90;;;;;;5041236;28;20196;-39
2023/05/11 05:43:14;;;;;;;0.90;0.90;;;12.10;99.90;;;;;;5041011;28;20215;-39
2023/05/11 05:45:41;;;;;;;3.10;1.20;;;12.10;99.90;;;;;;5031319;28;20179;-41
2023/05/11 05:48:08;;;;;;;1.00;0.90;;;12.10;99.90;;;;;;5032775;28;20189;-41
2023/05/11 05:50:34;;;;;;;2.30;0.93;;;12.10;99.90;;;;;;5032053;28;20185;-41
2023/05/11 05:53:00;;;;;;;1.20;1.10;;;12.10;99.90;;;;;;5020635;28;20197;-41
2023/05/11 05:55:28;;;;;;;0.83;0.83;;;12.10;99.90;;;;;;5036305;28;20184;-41
2023/05/11 05:57:55;;;;;;;2.27;0.90;;;12.10;99.90;;;;;;5026193;28;20209;-41
2023/05/11 06:00:22;;;;;;;0.93;0.93;;;12.10;99.90;;;;;;5029245;28;20176;-41
2023/05/11 06:02:59;;;;;;;1.37;0.80;;;12.20;99.90;;;;;;5046897;28;20201;-41
2023/05/11 06:05:26;;;;;;;2.87;1.00;;;12.20;99.90;;;;;;5045909;28;20183;-41
2023/05/11 06:07:52;;;;;;;1.47;1.00;;;12.20;99.90;;;;;;5036183;28;20173;-41
2023/05/11 06:10:18;;;;;;;2.83;1.07;;;12.20;99.90;;;;;;5044401;28;20234;-41
2023/05/11 06:12:46;;;;;;;1.00;0.90;;;12.20;99.90;;;;;;5035402;28;20204;-40
2023/05/11 06:15:12;;;;;;;2.50;1.20;;;12.20;99.90;;;;;;5045071;28;20181;-41
2023/05/11 06:17:42;;;;;;;1.53;1.20;;;12.20;99.90;;;;;;5032679;28;20202;-37
2023/05/11 06:20:09;;;;;;;0.97;0.90;;;12.20;99.90;;;;;;5024709;28;20177;-40
2023/05/11 06:22:35;;;;;;;1.63;0.97;;;12.30;99.90;;;;;;5052630;28;20282;-41
2023/05/11 06:25:01;;;;;;;0.90;0.90;;;12.30;99.90;;;;;;5033601;28;20180;-41
2023/05/11 06:27:28;;;;;;;1.67;0.90;;;12.30;99.90;;;;;;5052268;28;20204;-41
2023/05/11 06:29:56;;;;;;;3.10;1.20;;;12.30;99.90;;;;;;5036062;28;20260;-41
2023/05/11 06:32:24;;;;;;;3.10;1.30;;;12.30;99.90;;;;;;5039937;28;20214;-41
2023/05/11 06:34:50;;;;;;;2.40;1.40;;;12.30;99.90;;;;;;5035533;28;20220;-40
2023/05/11 06:37:19;;;;;;;1.40;1.30;;;12.30;99.90;;;;;;5052082;28;20185;-40
2023/05/11 06:39:47;;;;;;;2.87;1.10;;;12.40;99.90;;;;;;5043044;28;20181;-41
2023/05/11 06:42:13;;;;;;;1.40;1.20;;;12.40;99.90;;;;;;5032061;28;20191;-40
2023/05/11 06:44:40;;;;;;;1.47;1.13;;;12.40;99.90;;;;;;5015481;28;20193;-41
2023/05/11 06:47:07;;;;;;;1.80;1.00;;;12.50;99.90;;;;;;5016066;28;20193;-41
2023/05/11 06:49:33;;;;;;;1.60;1.10;;;12.50;99.90;;;;;;5032253;28;20181;-41
2023/05/11 06:51:59;;;;;;;2.87;1.00;;;12.60;99.90;;;;;;5031978;28;20181;-40
2023/05/11 06:54:25;;;;;;;2.93;1.20;;;12.60;99.90;;;;;;5032306;28;20205;-41
2023/05/11 06:56:51;;;;;;;1.80;1.30;;;12.60;99.90;;;;;;5032342;28;20182;-41
2023/05/11 06:59:16;;;;;;;1.73;1.30;;;12.60;99.90;;;;;;5015587;28;20243;-41
2023/05/11 07:01:42;;;;;;;2.40;1.00;;;12.60;99.90;;;;;;5031872;28;20188;-39
2023/05/11 07:04:08;;;;;;;2.20;1.23;;;12.60;99.90;;;;;;5033781;28;20265;-39
2023/05/11 07:06:34;;;;;;;3.10;1.10;;;12.70;99.90;;;;;;5053275;28;20183;-41
2023/05/11 07:09:02;;;;;;;3.23;1.30;;;12.70;99.90;;;;;;5061452;28;20186;-41
2023/05/11 07:11:29;;;;;;;2.40;1.37;;;12.70;99.90;;;;;;5035474;28;20196;-39
2023/05/11 07:13:55;;;;;;;4.13;1.13;;;12.80;99.90;;;;;;5053048;28;20213;-41
2023/05/11 07:16:22;;;;;;;1.20;1.10;;;12.80;99.90;;;;;;5035261;28;20186;-41
2023/05/11 07:18:48;;;;;;;1.47;1.03;;;12.80;99.90;;;;;;5052711;28;20296;-40
2023/05/11 07:21:13;;;;;;;1.73;1.10;;;12.90;99.90;;;;;;5035429;28;20185;-41
2023/05/11 07:23:39;;;;;;;2.30;1.17;;;12.90;99.90;;;;;;5018704;28;20251;-41
2023/05/11 07:26:08;;;;;;;1.20;1.10;;;13.00;99.90;;;;;;5018401;28;20178;-41
2023/05/11 07:28:36;;;;;;;2.57;1.20;;;13.00;99.90;;;;;;5053415;28;20186;-41
2023/05/11 07:31:03;;;;;;;2.50;1.10;;;13.00;99.90;;;;;;5035406;28;20260;-39
2023/05/11 07:33:28;;;;;;;2.23;1.40;;;13.10;99.90;;;;;;5052717;28;20237;-39
2023/05/11 07:35:54;;;;;;;1.97;1.30;;;13.10;99.90;;;;;;5034444;28;20205;-40
2023/05/11 07:38:20;;;;;;;2.27;1.40;;;13.00;99.90;;;;;;5039632;28;20254;-41
2023/05/11 07:40:46;;;;;;;1.30;1.20;;;13.10;99.90;;;;;;5037514;28;20186;-41
2023/05/11 07:43:12;;;;;;;3.33;1.20;;;13.10;99.90;;;;;;5052034;28;20217;-41
2023/05/11 07:45:39;;;;;;;1.30;1.20;;;13.20;99.90;;;;;;5035017;28;20174;-41
2023/05/11 07:48:04;;;;;;;1.80;1.20;;;13.20;99.90;;;;;;5018451;28;20205;-41
2023/05/11 07:50:30;;;;;;;3.43;1.40;;;13.20;99.90;;;;;;5034755;28;20181;-42
2023/05/11 07:52:56;;;;;;;1.30;1.20;;;13.20;99.90;;;;;;5018131;28;20206;-41
2023/05/11 07:55:25;;;;;;;3.03;1.40;;;13.30;99.90;;;;;;5034834;28;20236;-41
2023/05/11 07:57:53;;;;;;;1.93;1.33;;;13.30;99.90;;;;;;5052449;28;20202;-41
2023/05/11 08:00:19;;;;;;;2.00;1.30;;;13.30;99.90;;;;;;5052466;28;20182;-41
2023/05/11 08:02:45;;;;;;;2.07;1.27;;;13.40;99.90;;;;;;5034437;28;20205;-42
2023/05/11 08:05:11;;;;;;;3.83;1.40;;;13.40;99.90;;;;;;5052508;28;20216;-41
2023/05/11 08:07:37;;;;;;;1.43;1.30;;;13.40;99.90;;;;;;5034260;28;20212;-44
2023/05/11 08:10:03;;;;;;;1.73;1.40;;;13.30;99.90;;;;;;5060081;28;20211;-41
2023/05/11 08:12:29;;;;;;;2.10;1.70;;;13.30;99.90;;;;;;5052049;28;20212;-42
2023/05/11 08:14:55;;;;;;;1.87;1.60;;;13.20;99.90;;;;;;5052049;28;20190;-42
2023/05/11 08:17:20;;;;;;;1.87;1.40;;;13.10;99.90;;;;;;5034316;28;20201;-40
2023/05/11 08:19:46;;;;;;;1.27;1.10;;;13.10;99.90;;;;;;5033934;28;20664;-39
2023/05/11 08:22:12;;;;;;;1.30;1.20;;;13.10;99.90;;;;;;5051861;28;20166;-41
2023/05/11 08:24:38;;;;;;;3.67;1.70;;;13.00;99.90;;;;;;5034151;28;20197;-41
2023/05/11 08:27:04;;;;;;;1.10;1.10;;;13.00;99.90;;;;;;5052362;28;20224;-39
2023/05/11 08:29:30;;;;;;;2.57;2.10;;;12.90;99.90;;;;;;5017666;28;20182;-41
2023/05/11 08:31:57;;;;;;;3.90;1.80;;;12.90;99.90;;;;;;5033339;28;20181;-41
2023/05/11 08:34:23;;;;;;;2.30;2.00;;;12.90;99.90;;;;;;5033752;28;20211;-39
2023/05/11 08:36:49;;;;;;;3.60;1.83;;;12.80;99.90;;;;;;5033905;28;20224;-42
2023/05/11 08:39:15;;;;;;;3.83;1.60;;;12.80;99.90;;;;;;5064046;28;20217;-41
2023/05/11 08:41:42;;;;;;;2.90;1.50;;;12.80;99.90;;;;;;5036860;28;20188;-41
2023/05/11 08:44:10;;;;;;;3.67;1.80;;;12.80;99.90;;;;;;5053336;28;20240;-41
2023/05/11 08:46:38;;;;;;;3.43;1.57;;;12.70;99.90;;;;;;5071020;28;20180;-39
2023/05/11 08:49:06;;;;;;;2.60;1.07;;;12.70;99.90;;;;;;5053489;28;20184;-42
2023/05/11 08:51:32;;;;;;;1.27;1.10;;;12.70;99.90;;;;;;5052758;28;20250;-41
2023/05/11 08:53:58;;;;;;;1.80;1.30;;;12.70;99.90;;;;;;5070797;28;20268;-41
2023/05/11 08:56:28;;;;;;;1.13;0.90;;;12.70;99.90;;;;;;5054412;28;20184;-41
2023/05/11 08:58:57;;;;;;;0.90;0.90;;;12.60;99.90;;;;;;5054058;28;20212;-42
2023/05/11 09:01:26;;;;;;;1.00;1.00;;;12.60;99.90;;;;;;5053515;28;20200;-41
2023/05/11 09:03:53;;;;;;;11.40;6.90;;;12.60;99.90;;;;;;5070780;28;20550;-41
2023/05/11 09:06:19;;;;;;;4.60;2.50;;;12.60;99.90;;;;;;5037665;28;20174;-41
2023/05/11 09:08:45;;;;;;;1.20;1.00;;;12.70;99.90;;;;;;5071673;28;20199;-42
2023/05/11 09:11:11;;;;;;;1.57;1.10;;;12.80;99.90;;;;;;5063130;28;20695;-41
2023/05/11 09:13:37;;;;;;;1.77;1.43;;;12.90;99.90;;;;;;5070984;28;20295;-41
2023/05/11 09:16:03;;;;;;;1.90;1.20;;;12.90;99.90;;;;;;5053070;28;20241;-41
2023/05/11 09:18:29;;;;;;;1.37;1.23;;;12.90;99.90;;;;;;5071167;28;20212;-42
2023/05/11 09:20:54;;;;;;;1.03;0.93;;;12.90;99.90;;;;;;5071052;28;20173;-41
2023/05/11 09:23:27;;;;;;;1.10;0.97;;;12.90;99.90;;;;;;5035710;28;20205;-42
2023/05/11 09:25:53;;;;;;;0.90;0.90;;;13.00;99.90;;;;;;5035818;28;20193;-41
2023/05/11 09:28:25;;;;;;;2.23;1.10;;;13.10;99.90;;;;;;5071093;28;20177;-41
2023/05/11 09:30:52;;;;;;;2.93;1.23;;;13.00;99.90;;;;;;5053131;28;20185;-39
2023/05/11 09:33:25;;;;;;;0.93;0.93;;;13.10;99.90;;;;;;5052256;28;20254;-41
2023/05/11 09:35:51;;;;;;;1.43;1.30;;;13.10;99.90;;;;;;5070408;28;20186;-41
2023/05/11 09:38:21;;;;;;;1.27;0.90;;;13.20;99.90;;;;;;5052670;28;20216;-42
2023/05/11 09:40:55;;;;;;;1.37;1.17;;;13.20;99.90;;;;;;5035186;28;20246;-41
2023/05/11 09:43:25;;;;;;;1.53;1.23;;;13.20;99.90;;;;;;5032516;28;20608;-41
2023/05/11 09:45:56;;;;;;;1.47;1.20;;;13.30;99.90;;;;;;5016635;28;20201;-42
2023/05/11 09:48:30;;;;;;;1.33;1.23;;;13.30;99.90;;;;;;5032474;28;20181;-42
2023/05/11 09:51:05;;;;;;;1.80;1.00;;;13.30;99.90;;;;;;5032338;28;20186;-41
2023/05/11 09:53:43;;;;;;;1.23;1.03;;;13.30;99.90;;;;;;5050316;28;20215;-42
2023/05/11 09:56:10;;;;;;;0.97;0.90;;;13.30;99.90;;;;;;5032794;28;20189;-40
2023/05/11 09:58:57;;;;;;;1.10;1.00;;;13.40;99.90;;;;;;5033039;28;20205;-41
2023/05/11 10:01:33;;;;;;;2.33;1.20;;;13.50;99.90;;;;;;5050662;28;20170;-41
2023/05/11 10:04:00;;;;;;;1.67;1.20;;;13.50;99.90;;;;;;5032469;28;20197;-41
2023/05/11 10:06:27;;;;;;;1.37;1.10;;;13.60;99.90;;;;;;5016482;28;20185;-41
2023/05/11 10:08:54;;;;;;;1.27;0.90;;;13.70;99.90;;;;;;5040446;28;20185;-41
2023/05/11 10:11:23;;;;;;;1.17;0.90;;;13.70;99.90;;;;;;5032463;28;20227;-40
2023/05/11 10:13:51;;;;;;;1.70;1.10;;;13.70;99.90;;;;;;5050173;28;20236;-42
2023/05/11 10:16:18;;;;;;;1.20;0.70;;;13.80;99.90;;;;;;5050435;28;20182;-42
2023/05/11 10:18:45;;;;;;;2.20;0.90;;;13.80;99.90;;;;;;5032591;28;20208;-41
2023/05/11 10:21:14;;;;;;;1.37;1.00;;;13.80;99.90;;;;;;5049698;28;20170;-40
2023/05/11 10:23:41;;;;;;;1.63;1.00;;;13.90;99.90;;;;;;5050089;28;20193;-40
2023/05/11 10:26:09;;;;;;;1.87;1.10;;;13.90;99.90;;;;;;5032621;28;20251;-41
2023/05/11 10:28:36;;;;;;;0.83;0.83;;;13.90;99.90;;;;;;5050428;28;20214;-41
2023/05/11 10:31:03;;;;;;;1.53;1.10;;;13.90;99.90;;;;;;5049855;28;20175;-41
2023/05/11 10:33:30;;;;;;;2.23;1.20;;;13.90;99.90;;;;;;5032004;28;20202;-42
2023/05/11 10:35:56;;;;;;;2.17;1.03;;;13.80;99.90;;;;;;5032482;28;20178;-44
2023/05/11 10:38:23;;;;;;;3.00;1.37;;;13.80;99.90;;;;;;5035327;28;20213;-39
2023/05/11 10:40:51;;;;;;;1.63;1.20;;;13.80;99.90;;;;;;5036286;28;20288;-42
2023/05/11 10:43:48;;;;;;;2.87;1.13;;;13.80;99.90;;;;;;5055827;28;20208;-42
2023/05/11 10:46:57;;;;;;;1.80;0.90;;;13.80;99.90;;;;;;5055713;28;20173;-42
2023/05/11 10:49:31;;;;;;;1.10;1.00;;;13.80;99.90;;;;;;5017139;28;20239;-42
2023/05/11 10:52:19;;;;;;;1.20;1.10;;;13.80;99.90;;;;;;5072906;28;20201;-42
2023/05/11 10:55:08;;;;;;;2.07;1.33;;;13.90;99.90;;;;;;5051393;28;20181;-42
2023/05/11 10:57:33;;;;;;;1.10;1.00;;;13.90;99.90;;;;;;5046768;28;20270;-40
2023/05/11 11:00:30;;;;;;;1.53;0.97;;;13.90;99.90;;;;;;5054672;28;20182;-41
2023/05/11 11:03:11;;;;;;;1.73;0.90;;;13.90;99.90;;;;;;5061692;28;20216;-41
2023/05/11 11:05:38;;;;;;;1.67;1.00;;;13.90;99.90;;;;;;5061209;28;20193;-42
2023/05/11 11:08:07;;;;;;;1.17;1.07;;;14.00;99.90;;;;;;5036838;28;20178;-42
2023/05/11 11:10:34;;;;;;;1.10;1.00;;;14.10;99.90;;;;;;5048027;28;20178;-44
2023/05/11 11:13:04;;;;;;;1.27;1.00;;;14.20;99.90;;;;;;5051133;28;20304;-42
2023/05/11 11:15:52;;;;;;;0.93;0.93;;;14.30;99.90;;;;;;5054897;28;20207;-42
2023/05/11 11:18:20;;;;;;;1.47;1.00;;;14.30;99.90;;;;;;5073252;28;20209;-42
2023/05/11 11:20:48;;;;;;;1.07;0.90;;;14.40;99.90;;;;;;5072679;28;20168;-41
2023/05/11 11:23:42;;;;;;;0.93;0.90;;;14.50;99.90;;;;;;5054991;28;20193;-42
2023/05/11 11:26:10;;;;;;;0.77;0.73;;;14.60;99.90;;;;;;5072625;28;20204;-44
2023/05/11 11:28:59;;;;;;;1.33;0.90;;;14.70;99.90;;;;;;5045937;28;20201;-40
2023/05/11 11:31:26;;;;;;;2.37;1.00;;;14.80;99.90;;;;;;5038355;28;20186;-42
2023/05/11 11:33:57;;;;;;;3.33;1.00;;;15.00;99.90;;;;;;5045668;28;20210;-39
2023/05/11 11:37:03;;;;;;;3.27;1.00;;;15.10;99.90;;;;;;5033631;28;20260;-40
2023/05/11 11:39:49;;;;;;;2.30;1.10;;;15.20;99.90;;;;;;4977678;28;20208;-42
2023/05/11 11:42:16;;;;;;;1.67;0.87;;;15.20;99.90;;;;;;5044373;28;20185;-40
2023/05/11 11:44:43;;;;;;;1.13;0.90;;;15.20;99.90;;;;;;5067112;28;20194;-42
2023/05/11 11:47:19;;;;;;;1.07;0.97;;;15.20;99.90;;;;;;5035494;28;20181;-40
2023/05/11 11:49:47;;;;;;;1.10;1.00;;;15.30;99.90;;;;;;5060831;28;20184;-43
2023/05/11 11:52:26;;;;;;;1.37;0.90;;;15.30;99.90;;;;;;5034510;28;20186;-42
2023/05/11 11:54:53;;;;;;;1.33;1.07;;;15.40;99.90;;;;;;5042206;28;20184;-41
2023/05/11 11:57:34;;;;;;;1.37;1.10;;;15.40;99.90;;;;;;5026463;28;20390;-42
2023/05/11 12:00:05;;;;;;;3.07;0.97;;;15.40;99.90;;;;;;5054502;28;20255;-42
2023/05/11 12:02:42;;;;;;;2.03;0.90;;;15.30;99.90;;;;;;5072042;28;20288;-42
2023/05/11 12:05:13;;;;;;;1.70;1.13;;;15.30;99.90;;;;;;5045344;28;20265;-42
2023/05/11 12:07:47;;;;;;;1.43;1.10;;;15.20;99.90;;;;;;5018195;28;20189;-41
2023/05/11 12:10:16;;;;;;;1.77;1.03;;;15.10;99.90;;;;;;5062768;28;20196;-42
2023/05/11 12:12:46;;;;;;;1.30;1.20;;;14.90;99.90;;;;;;5039571;28;20209;-42
2023/05/11 12:15:41;;;;;;;1.20;1.10;;;14.90;99.90;;;;;;5044527;28;20192;-42
2023/05/11 12:18:22;;;;;;;1.57;1.10;;;14.80;99.90;;;;;;5028452;28;20251;-42
2023/05/11 12:20:49;;;;;;;1.27;1.00;;;14.80;99.90;;;;;;5063247;28;20174;-41
2023/05/11 12:23:15;;;;;;;2.70;1.17;;;14.80;99.90;;;;;;5045953;28;20190;-41
2023/05/11 12:25:41;;;;;;;2.00;1.00;;;14.80;99.90;;;;;;5040698;28;20170;-41
2023/05/11 12:28:06;;;;;;;1.10;0.90;;;14.70;99.90;;;;;;5067499;28;20208;-42
2023/05/11 12:30:33;;;;;;;1.10;1.00;;;14.80;99.90;;;;;;5057582;28;20177;-43
2023/05/11 12:33:00;;;;;;;2.37;1.40;;;14.80;99.90;;;;;;5050455;28;20204;-41
2023/05/11 12:35:31;;;;;;;2.40;1.37;;;14.80;99.90;;;;;;5049310;28;20178;-41
2023/05/11 12:38:00;;;;;;;1.30;1.13;;;14.80;99.90;;;;;;5070055;28;20209;-41
2023/05/11 12:40:26;;;;;;;2.30;1.13;;;14.80;99.90;;;;;;5024222;28;20182;-41
2023/05/11 12:42:58;;;;;;;1.73;1.17;;;14.80;99.90;;;;;;5059674;28;20232;-42
2023/05/11 12:45:26;;;;;;;2.13;1.33;;;14.90;99.90;;;;;;5067227;28;20170;-42
2023/05/11 12:47:53;;;;;;;1.20;1.10;;;15.00;99.90;;;;;;5053438;28;20216;-42
2023/05/11 12:50:20;;;;;;;1.17;0.90;;;15.00;99.90;;;;;;5058947;28;20236;-41
2023/05/11 12:52:47;;;;;;;3.13;1.00;;;15.10;99.90;;;;;;5022578;28;20221;-42
2023/05/11 12:55:24;;;;;;;1.20;1.03;;;15.20;99.90;;;;;;5051074;28;20184;-41
2023/05/11 12:57:53;;;;;;;1.00;0.80;;;15.30;99.90;;;;;;5049919;28;20208;-42